createdAt,value
2022-12-18T00:04:52.126Z,102431.11
2022-12-18T00:09:59.254Z,102431.25
2022-12-18T00:15:07.497Z,102446.13
2022-12-18T00:20:15.261Z,102455.15
2022-12-18T00:25:22.760Z,102454.42
2022-12-18T00:30:30.433Z,102453.73
2022-12-18T00:35:37.924Z,102460.64
2022-12-18T00:40:45.057Z,102472.29
2022-12-18T00:45:53.563Z,102478.80
2022-12-18T00:51:00.924Z,102479.10
2022-12-18T00:56:08.524Z,102484.02
2022-12-18T01:01:15.671Z,102482.19
2022-12-18T01:06:22.786Z,102484.70
2022-12-18T01:11:30.056Z,102507.84
2022-12-18T01:16:37.675Z,102509.84
2022-12-18T01:21:45.361Z,102514.59
2022-12-18T01:26:52.379Z,102514.19
2022-12-18T01:31:59.944Z,102520.52
2022-12-18T01:37:07.784Z,102517.58
2022-12-18T01:42:13.949Z,102520.13
2022-12-18T01:47:41.447Z,102529.30
2022-12-18T01:52:52.133Z,102528.02
2022-12-18T01:58:02.665Z,102536.30
2022-12-18T02:03:09.957Z,102540.30
2022-12-18T02:08:23.142Z,102545.98
2022-12-18T02:13:38.861Z,102548.20
2022-12-18T02:18:50.992Z,102554.27
2022-12-18T02:24:08.540Z,102547.21
2022-12-18T02:29:20.242Z,102552.16
2022-12-18T02:34:31.445Z,102561.23
2022-12-18T02:39:40.936Z,102573.95
2022-12-18T02:44:52.304Z,102573.64
2022-12-18T02:50:12.378Z,102570.79
2022-12-18T02:55:30.342Z,102579.27
2022-12-18T03:00:46.340Z,102584.29
2022-12-18T03:05:58.978Z,102585.91
2022-12-18T03:11:09.894Z,102589.02
2022-12-18T03:16:24.677Z,102589.98
2022-12-18T03:21:36.529Z,102588.05
2022-12-18T03:26:47.079Z,102593.44
2022-12-18T03:32:00.762Z,102603.30
2022-12-18T03:37:08.785Z,102617.54
2022-12-18T03:42:28.068Z,102622.91
2022-12-18T03:47:52.382Z,102629.04
2022-12-18T03:53:06.374Z,102636.17
2022-12-18T03:58:18.387Z,102633.73
2022-12-18T04:03:36.607Z,102638.75
2022-12-18T04:08:44.955Z,102636.65
2022-12-18T04:13:57.414Z,102637.53
2022-12-18T04:19:04.840Z,102641.02
2022-12-18T04:24:17.260Z,102647.23
2022-12-18T04:29:32.407Z,102648.06
2022-12-18T04:34:40.072Z,102657.54
2022-12-18T04:39:46.104Z,102657.11
2022-12-18T04:45:00.109Z,102664.96
2022-12-18T04:50:08.415Z,102667.00
2022-12-18T04:55:15.477Z,102677.34
2022-12-18T05:00:23.164Z,102677.98
2022-12-18T05:05:28.621Z,102678.93
2022-12-18T05:10:38.270Z,102683.90
2022-12-18T05:15:53.742Z,102687.88
2022-12-18T05:21:00.868Z,102693.47
2022-12-18T05:26:09.530Z,102701.67
2022-12-18T05:31:17.312Z,102716.27
2022-12-18T05:36:24.444Z,102730.49
2022-12-18T05:41:31.543Z,102737.88
2022-12-18T05:46:38.672Z,102740.39
2022-12-18T05:51:48.583Z,102745.68
2022-12-18T05:56:55.860Z,102749.23
2022-12-18T06:02:03.068Z,102751.58
2022-12-18T06:07:10.172Z,102756.23
2022-12-18T06:12:17.304Z,102763.57
2022-12-18T06:17:24.414Z,102767.09
2022-12-18T06:22:32.638Z,102771.70
2022-12-18T06:27:39.896Z,102784.11
2022-12-18T06:32:50.460Z,102793.24
2022-12-18T06:38:00.279Z,102796.38
2022-12-18T06:43:07.451Z,102803.67
2022-12-18T06:48:14.517Z,102813.24
2022-12-18T06:53:21.652Z,102820.24
2022-12-18T06:58:29.068Z,102827.02
2022-12-18T07:03:36.194Z,102839.94
2022-12-18T07:08:43.394Z,102853.23
2022-12-18T07:13:50.545Z,102858.48
2022-12-18T07:18:58.160Z,102865.25
2022-12-18T07:24:05.674Z,102872.73
2022-12-18T07:29:12.754Z,102876.39
2022-12-18T07:34:19.941Z,102880.73
2022-12-18T07:39:27.031Z,102886.55
2022-12-18T07:44:34.014Z,102897.80
2022-12-18T07:49:41.076Z,102901.75
2022-12-18T07:54:50.062Z,102910.13
2022-12-18T07:59:57.173Z,102914.92
2022-12-18T08:05:04.376Z,102912.33
2022-12-18T08:10:12.394Z,102915.01
2022-12-18T08:15:19.905Z,102933.61
2022-12-18T08:20:27.003Z,102942.20
2022-12-18T08:25:34.159Z,102944.27
2022-12-18T08:30:41.445Z,102948.48
2022-12-18T08:35:47.331Z,102950.34
2022-12-18T08:41:02.405Z,102957.64
2022-12-18T08:46:10.611Z,102971.95
2022-12-18T08:51:19.878Z,102981.46
2022-12-18T08:56:27.011Z,102982.59
2022-12-18T09:01:34.404Z,102978.73
2022-12-18T09:06:42.701Z,102969.33
2022-12-18T09:11:49.863Z,102968.77
2022-12-18T09:16:56.042Z,102978.16
2022-12-18T09:22:03.333Z,102969.00
2022-12-18T09:27:10.484Z,102962.58
2022-12-18T09:32:22.325Z,102954.11
2022-12-18T09:37:30.014Z,102945.62
2022-12-18T09:42:37.275Z,102945.10
2022-12-18T09:47:47.067Z,102955.32
2022-12-18T09:52:58.184Z,102961.52
2022-12-18T09:58:12.540Z,102955.73
2022-12-18T10:03:19.966Z,102951.89
2022-12-18T10:08:36.158Z,102948.33
2022-12-18T10:13:50.155Z,102946.84
2022-12-18T10:19:10.062Z,102949.34
2022-12-18T10:24:27.221Z,102957.37
2022-12-18T10:29:34.370Z,102963.61
2022-12-18T10:34:44.140Z,102965.43
2022-12-18T10:40:14.304Z,102977.20
2022-12-18T10:45:28.943Z,102977.43
2022-12-18T10:51:09.797Z,102972.34
2022-12-18T10:56:08.956Z,102977.61
2022-12-18T11:01:18.341Z,102982.64
2022-12-18T11:06:27.220Z,102992.05
2022-12-18T11:11:35.965Z,103002.02
2022-12-18T11:17:23.722Z,103004.58
2022-12-18T11:22:25.633Z,103005.89
2022-12-18T11:27:33.835Z,102998.06
2022-12-18T11:32:43.219Z,102997.08
2022-12-18T11:38:00.460Z,102983.42
2022-12-18T11:43:13.132Z,102984.08
2022-12-18T11:48:24.456Z,102981.61
2022-12-18T11:53:32.128Z,102979.16
2022-12-18T11:58:43.529Z,102985.64
2022-12-18T12:04:08.457Z,102993.98
2022-12-18T12:09:24.062Z,102998.30
2022-12-18T12:14:44.800Z,102998.23
2022-12-18T12:20:04.619Z,103006.20
2022-12-18T12:25:30.160Z,103017.55
2022-12-18T12:30:50.782Z,103021.84
2022-12-18T12:36:06.466Z,103026.23
2022-12-18T12:41:32.860Z,103041.27
2022-12-18T12:46:44.014Z,103050.77
2022-12-18T12:51:59.397Z,103057.70
2022-12-18T12:57:14.953Z,103063.51
2022-12-18T13:02:30.736Z,103065.97
2022-12-18T13:07:42.935Z,103072.84
2022-12-18T13:12:58.727Z,103069.71
2022-12-18T13:18:23.755Z,103066.16
2022-12-18T13:23:34.076Z,103064.76
2022-12-18T13:28:58.180Z,103061.23
2022-12-18T13:34:26.221Z,103062.45
2022-12-18T13:39:38.002Z,103070.89
2022-12-18T13:44:45.549Z,103064.31
2022-12-18T13:49:51.132Z,103070.12
2022-12-18T13:55:00.395Z,103067.42
2022-12-18T14:00:29.717Z,103064.52
2022-12-18T14:05:39.963Z,103066.02
2022-12-18T14:10:53.449Z,103071.84
2022-12-18T14:16:03.791Z,103070.55
2022-12-18T14:21:22.348Z,103079.89
2022-12-18T14:26:31.974Z,103084.46
2022-12-18T14:31:39.896Z,103081.62
2022-12-18T14:36:53.888Z,103089.91
2022-12-18T14:42:01.166Z,103086.86
2022-12-18T14:47:15.884Z,103076.98
2022-12-18T14:52:30.102Z,103078.27
2022-12-18T14:57:43.451Z,103086.63
2022-12-18T15:02:54.743Z,103084.34
2022-12-18T15:08:03.394Z,103088.52
2022-12-18T15:13:25.640Z,103098.64
2022-12-18T15:18:35.013Z,103112.89
2022-12-18T15:23:51.723Z,103120.59
2022-12-18T15:29:03.130Z,103117.60
2022-12-18T15:34:23.732Z,103112.16
2022-12-18T15:39:30.963Z,103107.85
2022-12-18T15:44:38.139Z,103104.92
2022-12-18T15:49:45.284Z,103116.98
2022-12-18T15:55:10.088Z,103119.12
2022-12-18T16:00:18.552Z,103120.58
2022-12-18T16:05:25.661Z,103121.09
2022-12-18T16:10:32.880Z,103117.94
2022-12-18T16:15:40.238Z,103096.69
2022-12-18T16:20:47.548Z,103086.45
2022-12-18T16:25:54.787Z,103078.35
2022-12-18T16:31:02.229Z,103081.23
2022-12-18T16:36:09.056Z,103076.71
2022-12-18T16:41:34.154Z,103076.46
2022-12-18T16:46:44.192Z,103077.23
2022-12-18T16:51:52.363Z,103078.56
2022-12-18T16:57:00.811Z,103064.36
2022-12-18T17:02:08.603Z,103062.52
2022-12-18T17:07:16.920Z,103067.02
2022-12-18T17:12:25.433Z,103064.23
2022-12-18T17:17:32.876Z,103070.72
2022-12-18T17:22:38.853Z,103064.00
2022-12-18T17:27:46.952Z,103067.77
2022-12-18T17:32:55.002Z,103067.91
2022-12-18T17:38:02.479Z,103071.29
2022-12-18T17:43:11.036Z,103055.98
2022-12-18T17:48:18.843Z,103050.00
2022-12-18T17:53:26.236Z,103050.58
2022-12-18T17:58:34.070Z,103052.35
2022-12-18T18:03:41.728Z,103053.89
2022-12-18T18:08:49.878Z,103057.79
2022-12-18T18:14:04.313Z,103057.05
2022-12-18T18:19:14.130Z,103059.48
2022-12-18T18:24:24.229Z,103061.90
2022-12-18T18:29:31.961Z,103068.26
2022-12-18T18:34:44.833Z,103091.77
2022-12-18T18:39:52.108Z,103090.52
2022-12-18T18:44:59.254Z,103076.08
2022-12-18T18:50:07.398Z,103076.30
2022-12-18T18:55:20.993Z,103087.79
2022-12-18T19:00:33.086Z,103086.75
2022-12-18T19:05:44.439Z,103087.18
2022-12-18T19:10:59.352Z,103081.20
2022-12-18T19:16:09.265Z,103087.83
2022-12-18T19:21:19.708Z,103087.66
2022-12-18T19:26:29.097Z,103073.77
2022-12-18T19:31:42.107Z,103062.46
2022-12-18T19:37:00.633Z,103061.77
2022-12-18T19:42:08.170Z,103053.08
2022-12-18T19:47:15.607Z,103046.94
2022-12-18T19:52:25.059Z,103042.13
2022-12-18T19:57:32.929Z,103039.59
2022-12-18T20:02:40.167Z,103043.15
2022-12-18T20:07:47.971Z,103052.10
2022-12-18T20:12:55.382Z,103052.70
2022-12-18T20:18:03.896Z,103054.48
2022-12-18T20:23:11.313Z,103070.65
2022-12-18T20:28:18.706Z,103070.41
2022-12-18T20:33:25.897Z,103068.21
2022-12-18T20:38:57.078Z,103064.58
2022-12-18T20:44:23.574Z,103065.34
2022-12-18T20:49:40.107Z,103070.73
2022-12-18T20:55:06.264Z,103075.27
2022-12-18T21:00:20.100Z,103065.06
2022-12-18T21:05:30.147Z,103069.80
2022-12-18T21:10:37.146Z,103076.02
2022-12-18T21:15:45.797Z,103076.45
2022-12-18T21:20:58.373Z,103076.09
2022-12-18T21:26:20.853Z,103079.22
2022-12-18T21:31:31.052Z,103082.63
2022-12-18T21:36:38.371Z,103084.37
2022-12-18T21:42:04.361Z,103084.08
2022-12-18T21:47:22.387Z,103072.58
2022-12-18T21:52:32.218Z,103068.59
2022-12-18T21:57:41.492Z,103062.63
2022-12-18T22:03:01.168Z,103071.75
2022-12-18T22:08:16.720Z,103068.27
2022-12-18T22:13:24.034Z,103053.86
2022-12-18T22:18:31.501Z,103052.25
2022-12-18T22:23:39.107Z,103053.55
2022-12-18T22:29:04.152Z,103050.45
2022-12-18T22:34:11.941Z,103045.92
2022-12-18T22:39:21.351Z,103041.73
2022-12-18T22:44:30.045Z,103023.34
2022-12-18T22:49:37.626Z,103019.35
2022-12-18T22:54:43.079Z,103016.20
2022-12-18T22:59:50.251Z,103014.73
2022-12-18T23:04:57.304Z,103010.14
2022-12-18T23:10:04.487Z,102999.73
2022-12-18T23:15:13.597Z,102995.30
2022-12-18T23:20:23.193Z,102992.20
2022-12-18T23:25:30.301Z,102993.77
2022-12-18T23:30:37.458Z,102995.52
2022-12-18T23:35:44.560Z,102989.95
2022-12-18T23:40:51.768Z,102982.91
2022-12-18T23:46:03.431Z,102978.17
2022-12-18T23:51:12.438Z,102968.06
2022-12-18T23:56:19.566Z,102964.23
